1859 Tropical Storm NOT_NAMED (1859272N15322)


IBTrACS version v04r00. Visit IBTrACS website for data access.
Please direct all questions to the IBTrACS Q and A forum

Storm track - Intensity - Wind Radii - Intensity Data - Source Data - All data

Summary Information

Storm ID 1859272N15322
Start Sep 28 12Z
Max Intensity 45 kt (Oct 1 00Z)
End Oct 7 12Z
ATCF IDs
Track status Best track data.

Storm track plot

Map of storm track

Intensity plots

Map of storm track

Radial wind information

No radial wind information for this storm


Position and Intensity Table

BASIN ISO_TIME_________ NATURE LAT LON MLC WIND
degrees north degrees east kts
NA 1859-09-28 12:00:00 TS 14.90 -38.30 30
NA 15:00:00 TS 15.00 -38.40 30
NA 18:00:00 TS 15.10 -38.50 30
NA 21:00:00 TS 15.20 -38.60 30
NA 1859-09-29 00:00:00 TS 15.30 -38.70 30
NA 03:00:00 TS 15.40 -38.81 30
NA 06:00:00 TS 15.50 -38.90 30
NA 09:00:00 TS 15.60 -38.96 32
NA 12:00:00 TS 15.70 -39.00 35
NA 15:00:00 TS 15.80 -39.05 35
NA 18:00:00 TS 15.90 -39.10 35
NA 21:00:00 TS 16.00 -39.15 35
NA 1859-09-30 00:00:00 TS 16.10 -39.20 35
NA 03:00:00 TS 16.20 -39.25 37
NA 06:00:00 TS 16.30 -39.30 40
NA 09:00:00 TS 16.40 -39.35 40
NA 12:00:00 TS 16.50 -39.40 40
NA 15:00:00 TS 16.60 -39.45 40
NA 18:00:00 TS 16.70 -39.50 40
NA 21:00:00 TS 16.80 -39.55 42
NA 1859-10-01 00:00:00 TS 16.90 -39.60 45
NA 03:00:00 TS 17.00 -39.65 45
NA 06:00:00 TS 17.10 -39.70 45
NA 09:00:00 TS 17.19 -39.75 45
NA 12:00:00 TS 17.30 -39.80 45
NA 15:00:00 TS 17.45 -39.85 45
NA 18:00:00 TS 17.60 -39.90 45
NA 21:00:00 TS 17.72 -39.94 45
NA 1859-10-02 00:00:00 TS 17.80 -40.00 45
NA 03:00:00 TS 17.82 -40.14 45
NA 06:00:00 TS 17.80 -40.30 45
NA 09:00:00 TS 17.81 -40.41 45
NA 12:00:00 TS 17.80 -40.50 45
NA 15:00:00 TS 17.75 -40.60 42
NA 18:00:00 TS 17.70 -40.70 40
NA 21:00:00 TS 17.70 -40.80 40
NA 1859-10-03 00:00:00 TS 17.70 -40.90 40
NA 03:00:00 TS 17.65 -41.00 40
NA 06:00:00 TS 17.60 -41.10 40
NA 09:00:00 TS 17.60 -41.20 40
NA 12:00:00 TS 17.60 -41.30 40
NA 15:00:00 TS 17.55 -41.40 40
NA 18:00:00 TS 17.50 -41.50 40
NA 21:00:00 TS 17.50 -41.60 40
NA 1859-10-04 00:00:00 TS 17.50 -41.70 40
NA 03:00:00 TS 17.45 -41.80 40
NA 06:00:00 TS 17.40 -41.90 40
NA 09:00:00 TS 17.40 -42.00 40
NA 12:00:00 TS 17.40 -42.10 40
NA 15:00:00 TS 17.35 -42.20 37
NA 18:00:00 TS 17.30 -42.30 35
NA 21:00:00 TS 17.30 -42.40 35
NA 1859-10-05 00:00:00 TS 17.30 -42.50 35
NA 03:00:00 TS 17.25 -42.60 35
NA 06:00:00 TS 17.20 -42.70 35
NA 09:00:00 TS 17.20 -42.80 35
NA 12:00:00 TS 17.20 -42.90 35
NA 15:00:00 TS 17.15 -43.00 32
NA 18:00:00 TS 17.10 -43.10 30
NA 21:00:00 TS 17.10 -43.20 30
NA 1859-10-06 00:00:00 TS 17.10 -43.30 30
NA 03:00:00 TS 17.05 -43.40 30
NA 06:00:00 TS 17.00 -43.50 30
NA 09:00:00 TS 17.00 -43.60 30
NA 12:00:00 TS 17.00 -43.70 30
NA 15:00:00 TS 16.95 -43.80 30
NA 18:00:00 TS 16.90 -43.90 30
NA 21:00:00 TS 16.90 -44.00 30
NA 1859-10-07 00:00:00 TS 16.90 -44.10 30
NA 03:00:00 TS 16.85 -44.20 30
NA 06:00:00 TS 16.80 -44.30 30
NA 09:00:00 TS 16.79 -44.40 30
NA 12:00:00 TS 16.80 -44.50 30

Source Information

Agency Information
USA
TOKYO
CMA
HKO
NEWDELHI
REUNION
BOM
NADI
WELLINGTON
DS824
TD9636
TD9635
NEUMANN
MLC

All available IBTrACS Data

SEASON BASIN SUBBASIN ISO_TIME_________ NATURE LAT LON DIST2LAND LANDFALL IFLAG USA SSHS MLC LAT MLC LON MLC CLASS MLC WIND STORM SPEED STORM DIR
Year degrees north degrees east km km 1 degrees north degrees east kts kts degrees
1859 NA NA 1859-09-28 12:00:00 TS 14.90 -38.30 1854 1852 _____________O -1 14.90 -38.30 TD 30 3 317
1859 NA NA 15:00:00 TS 15.00 -38.40 1852 1851 _____________P -1 15.00 -38.40 TD 30 3 316
1859 NA NA 18:00:00 TS 15.10 -38.50 1851 1843 _____________O -1 15.10 -38.50 TD 30 3 316
1859 NA NA 21:00:00 TS 15.20 -38.60 1850 1849 _____________P -1 15.20 -38.60 TD 30 3 316
1859 NA NA 1859-09-29 00:00:00 TS 15.30 -38.70 1849 1848 _____________O -1 15.30 -38.70 TD 30 3 315
1859 NA NA 03:00:00 TS 15.40 -38.81 1848 1840 _____________P -1 15.40 -38.81 TD 30 3 316
1859 NA NA 06:00:00 TS 15.50 -38.90 1847 1847 _____________O -1 15.50 -38.90 TD 30 2 324
1859 NA NA 09:00:00 TS 15.60 -38.96 1847 1847 _____________P -1 15.60 -38.96 TD 32 2 333
1859 NA NA 12:00:00 TS 15.70 -39.00 1854 1854 _____________O -1 15.70 -39.00 TS 35 2 335
1859 NA NA 15:00:00 TS 15.80 -39.05 1862 1854 _____________P -1 15.80 -39.05 TS 35 2 333
1859 NA NA 18:00:00 TS 15.90 -39.10 1862 1862 _____________O -1 15.90 -39.10 TS 35 2 333
1859 NA NA 21:00:00 TS 16.00 -39.15 1869 1861 _____________P -1 16.00 -39.15 TS 35 2 333
1859 NA NA 1859-09-30 00:00:00 TS 16.10 -39.20 1869 1869 _____________O -1 16.10 -39.20 TS 35 2 333
1859 NA NA 03:00:00 TS 16.20 -39.25 1877 1869 _____________P -1 16.20 -39.25 TS 37 2 333
1859 NA NA 06:00:00 TS 16.30 -39.30 1877 1877 _____________O -1 16.30 -39.30 TS 40 2 333
1859 NA NA 09:00:00 TS 16.40 -39.35 1885 1877 _____________P -1 16.40 -39.35 TS 40 2 333
1859 NA NA 12:00:00 TS 16.50 -39.40 1885 1885 _____________O -1 16.50 -39.40 TS 40 2 333
1859 NA NA 15:00:00 TS 16.60 -39.45 1886 1886 _____________P -1 16.60 -39.45 TS 40 2 333
1859 NA NA 18:00:00 TS 16.70 -39.50 1894 1894 _____________O -1 16.70 -39.50 TS 40 2 333
1859 NA NA 21:00:00 TS 16.80 -39.55 1902 1894 _____________P -1 16.80 -39.55 TS 42 2 333
1859 NA NA 1859-10-01 00:00:00 TS 16.90 -39.60 1903 1903 _____________O -1 16.90 -39.60 TS 45 2 333
1859 NA NA 03:00:00 TS 17.00 -39.65 1903 1903 _____________P -1 17.00 -39.65 TS 45 2 333
1859 NA NA 06:00:00 TS 17.10 -39.70 1912 1912 _____________O -1 17.10 -39.70 TS 45 2 333
1859 NA NA 09:00:00 TS 17.19 -39.75 1913 1913 _____________P -1 17.19 -39.75 TS 45 2 333
1859 NA NA 12:00:00 TS 17.30 -39.80 1921 1921 _____________O -1 17.30 -39.80 TS 45 3 340
1859 NA NA 15:00:00 TS 17.45 -39.85 1938 1929 _____________P -1 17.45 -39.85 TS 45 3 343
1859 NA NA 18:00:00 TS 17.60 -39.90 1939 1939 _____________O -1 17.60 -39.90 TS 45 3 345
1859 NA NA 21:00:00 TS 17.72 -39.94 1947 1947 _____________P -1 17.72 -39.94 TS 45 2 333
1859 NA NA 1859-10-02 00:00:00 TS 17.80 -40.00 1949 1942 _____________O -1 17.80 -40.00 TS 45 2 295
1859 NA NA 03:00:00 TS 17.82 -40.14 1942 1929 _____________P -1 17.82 -40.14 TS 45 3 270
1859 NA NA 06:00:00 TS 17.80 -40.30 1929 1922 _____________O -1 17.80 -40.30 TS 45 3 268
1859 NA NA 09:00:00 TS 17.81 -40.41 1922 1915 _____________P -1 17.81 -40.41 TS 45 2 270
1859 NA NA 12:00:00 TS 17.80 -40.50 1915 1908 _____________O -1 17.80 -40.50 TS 45 2 252
1859 NA NA 15:00:00 TS 17.75 -40.60 1908 1893 _____________P -1 17.75 -40.60 TS 42 2 242
1859 NA NA 18:00:00 TS 17.70 -40.70 1893 1886 _____________O -1 17.70 -40.70 TS 40 2 255
1859 NA NA 21:00:00 TS 17.70 -40.80 1886 1880 _____________P -1 17.70 -40.80 TS 40 2 270
1859 NA NA 1859-10-03 00:00:00 TS 17.70 -40.90 1880 1873 _____________O -1 17.70 -40.90 TS 40 2 255
1859 NA NA 03:00:00 TS 17.65 -41.00 1873 1858 _____________P -1 17.65 -41.00 TS 40 2 242
1859 NA NA 06:00:00 TS 17.60 -41.10 1858 1851 _____________O -1 17.60 -41.10 TS 40 2 255
1859 NA NA 09:00:00 TS 17.60 -41.20 1851 1845 _____________P -1 17.60 -41.20 TS 40 2 270
1859 NA NA 12:00:00 TS 17.60 -41.30 1845 1839 _____________O -1 17.60 -41.30 TS 40 2 255
1859 NA NA 15:00:00 TS 17.55 -41.40 1839 1823 _____________P -1 17.55 -41.40 TS 40 2 242
1859 NA NA 18:00:00 TS 17.50 -41.50 1823 1817 _____________O -1 17.50 -41.50 TS 40 2 255
1859 NA NA 21:00:00 TS 17.50 -41.60 1817 1811 _____________P -1 17.50 -41.60 TS 40 2 270
1859 NA NA 1859-10-04 00:00:00 TS 17.50 -41.70 1811 1804 _____________O -1 17.50 -41.70 TS 40 2 255
1859 NA NA 03:00:00 TS 17.45 -41.80 1804 1789 _____________P -1 17.45 -41.80 TS 40 2 242
1859 NA NA 06:00:00 TS 17.40 -41.90 1789 1783 _____________O -1 17.40 -41.90 TS 40 2 255
1859 NA NA 09:00:00 TS 17.40 -42.00 1783 1777 _____________P -1 17.40 -42.00 TS 40 2 270
1859 NA NA 12:00:00 TS 17.40 -42.10 1777 1771 _____________O -1 17.40 -42.10 TS 40 2 255
1859 NA NA 15:00:00 TS 17.35 -42.20 1761 1755 _____________P -1 17.35 -42.20 TS 37 2 242
1859 NA NA 18:00:00 TS 17.30 -42.30 1755 1749 _____________O -1 17.30 -42.30 TS 35 2 255
1859 NA NA 21:00:00 TS 17.30 -42.40 1749 1743 _____________P -1 17.30 -42.40 TS 35 2 270
1859 NA NA 1859-10-05 00:00:00 TS 17.30 -42.50 1743 1737 _____________O -1 17.30 -42.50 TS 35 2 255
1859 NA NA 03:00:00 TS 17.25 -42.60 1728 1722 _____________P -1 17.25 -42.60 TS 35 2 242
1859 NA NA 06:00:00 TS 17.20 -42.70 1722 1716 _____________O -1 17.20 -42.70 TS 35 2 255
1859 NA NA 09:00:00 TS 17.20 -42.80 1716 1709 _____________P -1 17.20 -42.80 TS 35 2 270
1859 NA NA 12:00:00 TS 17.20 -42.90 1709 1702 _____________O -1 17.20 -42.90 TS 35 2 255
1859 NA NA 15:00:00 TS 17.15 -43.00 1702 1687 _____________P -1 17.15 -43.00 TS 32 2 242
1859 NA NA 18:00:00 TS 17.10 -43.10 1687 1680 _____________O -1 17.10 -43.10 TD 30 2 255
1859 NA NA 21:00:00 TS 17.10 -43.20 1680 1674 _____________P -1 17.10 -43.20 TD 30 2 270
1859 NA NA 1859-10-06 00:00:00 TS 17.10 -43.30 1674 1667 _____________O -1 17.10 -43.30 TD 30 2 255
1859 NA NA 03:00:00 TS 17.05 -43.40 1667 1652 _____________P -1 17.05 -43.40 TD 30 2 242
1859 NA NA 06:00:00 TS 17.00 -43.50 1652 1645 _____________O -1 17.00 -43.50 TD 30 2 255
1859 NA NA 09:00:00 TS 17.00 -43.60 1645 1639 _____________P -1 17.00 -43.60 TD 30 2 270
1859 NA NA 12:00:00 TS 17.00 -43.70 1639 1632 _____________O -1 17.00 -43.70 TD 30 2 255
1859 NA NA 15:00:00 TS 16.95 -43.80 1632 1617 _____________P -1 16.95 -43.80 TD 30 2 242
1859 NA NA 18:00:00 TS 16.90 -43.90 1617 1611 _____________O -1 16.90 -43.90 TD 30 2 255
1859 NA NA 21:00:00 TS 16.90 -44.00 1611 1604 _____________P -1 16.90 -44.00 TD 30 2 270
1859 NA NA 1859-10-07 00:00:00 TS 16.90 -44.10 1604 1598 _____________O -1 16.90 -44.10 TD 30 2 255
1859 NA NA 03:00:00 TS 16.85 -44.20 1589 1583 _____________P -1 16.85 -44.20 TD 30 2 242
1859 NA NA 06:00:00 TS 16.80 -44.30 1583 1576 _____________O -1 16.80 -44.30 TD 30 2 252
1859 NA NA 09:00:00 TS 16.79 -44.40 1576 1570 _____________P -1 16.79 -44.40 TD 30 2 270
1859 NA NA 12:00:00 TS 16.80 -44.50 1570 _____________O -1 16.80 -44.50 TD 30 2 277